sensor_id;sensor_type;location;lat;lon;timestamp;P1;durP1;ratioP1;P2;durP2;ratioP2
69847;SDS011;57143;55.940;37.496;2022-12-18T00:02:08;10.00;;;3.20;;
69847;SDS011;57143;55.940;37.496;2022-12-18T00:04:35;13.18;;;3.30;;
69847;SDS011;57143;55.940;37.496;2022-12-18T00:07:02;9.93;;;2.80;;
69847;SDS011;57143;55.940;37.496;2022-12-18T00:09:29;11.23;;;4.07;;
69847;SDS011;57143;55.940;37.496;2022-12-18T00:11:58;7.45;;;2.42;;
69847;SDS011;57143;55.940;37.496;2022-12-18T00:14:25;9.45;;;3.13;;
69847;SDS011;57143;55.940;37.496;2022-12-18T00:16:52;11.10;;;3.80;;
69847;SDS011;57143;55.940;37.496;2022-12-18T00:19:19;9.35;;;3.78;;
69847;SDS011;57143;55.940;37.496;2022-12-18T00:21:46;8.40;;;2.67;;
69847;SDS011;57143;55.940;37.496;2022-12-18T00:24:13;10.57;;;3.67;;
69847;SDS011;57143;55.940;37.496;2022-12-18T00:26:40;9.35;;;2.83;;
69847;SDS011;57143;55.940;37.496;2022-12-18T00:29:10;9.73;;;3.03;;
69847;SDS011;57143;55.940;37.496;2022-12-18T00:31:39;7.63;;;2.10;;
69847;SDS011;57143;55.940;37.496;2022-12-18T00:34:08;8.20;;;2.43;;
69847;SDS011;57143;55.940;37.496;2022-12-18T00:36:37;9.57;;;2.88;;
69847;SDS011;57143;55.940;37.496;2022-12-18T00:39:05;10.50;;;3.05;;
69847;SDS011;57143;55.940;37.496;2022-12-18T00:41:33;8.27;;;2.47;;
69847;SDS011;57143;55.940;37.496;2022-12-18T00:44:19;10.82;;;3.08;;
69847;SDS011;57143;55.940;37.496;2022-12-18T00:46:46;9.37;;;2.47;;
69847;SDS011;57143;55.940;37.496;2022-12-18T00:49:15;9.27;;;3.42;;
69847;SDS011;57143;55.940;37.496;2022-12-18T00:51:43;7.07;;;2.20;;
69847;SDS011;57143;55.940;37.496;2022-12-18T00:54:10;8.70;;;2.92;;
69847;SDS011;57143;55.940;37.496;2022-12-18T00:56:37;8.18;;;2.80;;
69847;SDS011;57143;55.940;37.496;2022-12-18T00:59:05;10.13;;;3.73;;
69847;SDS011;57143;55.940;37.496;2022-12-18T01:01:33;12.40;;;4.25;;
69847;SDS011;57143;55.940;37.496;2022-12-18T01:04:01;8.52;;;2.67;;
69847;SDS011;57143;55.940;37.496;2022-12-18T01:06:29;7.63;;;2.30;;
69847;SDS011;57143;55.940;37.496;2022-12-18T01:08:56;9.82;;;3.35;;
69847;SDS011;57143;55.940;37.496;2022-12-18T01:11:23;10.53;;;3.20;;
69847;SDS011;57143;55.940;37.496;2022-12-18T01:13:51;8.70;;;2.42;;
69847;SDS011;57143;55.940;37.496;2022-12-18T01:16:19;7.65;;;2.17;;
69847;SDS011;57143;55.940;37.496;2022-12-18T01:18:50;10.27;;;3.25;;
69847;SDS011;57143;55.940;37.496;2022-12-18T01:21:18;9.05;;;2.67;;
69847;SDS011;57143;55.940;37.496;2022-12-18T01:23:45;8.13;;;3.20;;
69847;SDS011;57143;55.940;37.496;2022-12-18T01:26:15;8.88;;;2.15;;
69847;SDS011;57143;55.940;37.496;2022-12-18T01:28:42;11.07;;;2.50;;
69847;SDS011;57143;55.940;37.496;2022-12-18T01:31:14;7.47;;;2.50;;
69847;SDS011;57143;55.940;37.496;2022-12-18T01:33:45;10.68;;;3.97;;
69847;SDS011;57143;55.940;37.496;2022-12-18T01:36:17;8.37;;;2.77;;
69847;SDS011;57143;55.940;37.496;2022-12-18T01:38:46;6.40;;;1.95;;
69847;SDS011;57143;55.940;37.496;2022-12-18T01:41:13;7.75;;;2.58;;
69847;SDS011;57143;55.940;37.496;2022-12-18T01:43:42;6.53;;;2.25;;
69847;SDS011;57143;55.940;37.496;2022-12-18T01:46:11;8.10;;;3.17;;
69847;SDS011;57143;55.940;37.496;2022-12-18T01:48:39;8.17;;;2.33;;
69847;SDS011;57143;55.940;37.496;2022-12-18T01:51:07;8.68;;;2.67;;
69847;SDS011;57143;55.940;37.496;2022-12-18T01:53:38;10.90;;;3.45;;
69847;SDS011;57143;55.940;37.496;2022-12-18T01:56:07;16.23;;;4.15;;
69847;SDS011;57143;55.940;37.496;2022-12-18T01:58:39;9.20;;;3.63;;
69847;SDS011;57143;55.940;37.496;2022-12-18T02:01:12;8.77;;;2.10;;
69847;SDS011;57143;55.940;37.496;2022-12-18T02:03:40;8.30;;;2.00;;
69847;SDS011;57143;55.940;37.496;2022-12-18T02:06:10;5.75;;;2.03;;
69847;SDS011;57143;55.940;37.496;2022-12-18T02:08:45;6.70;;;2.50;;
69847;SDS011;57143;55.940;37.496;2022-12-18T02:11:21;8.98;;;2.63;;
69847;SDS011;57143;55.940;37.496;2022-12-18T02:14:00;8.40;;;3.07;;
69847;SDS011;57143;55.940;37.496;2022-12-18T02:16:38;7.15;;;2.78;;
69847;SDS011;57143;55.940;37.496;2022-12-18T02:19:15;8.82;;;3.25;;
69847;SDS011;57143;55.940;37.496;2022-12-18T02:21:56;8.20;;;2.97;;
69847;SDS011;57143;55.940;37.496;2022-12-18T02:24:35;7.30;;;2.15;;
69847;SDS011;57143;55.940;37.496;2022-12-18T02:27:09;8.10;;;2.03;;
69847;SDS011;57143;55.940;37.496;2022-12-18T02:29:38;6.60;;;1.98;;
69847;SDS011;57143;55.940;37.496;2022-12-18T02:32:12;7.25;;;2.38;;
69847;SDS011;57143;55.940;37.496;2022-12-18T02:34:43;6.20;;;2.45;;
69847;SDS011;57143;55.940;37.496;2022-12-18T02:37:13;10.30;;;4.18;;
69847;SDS011;57143;55.940;37.496;2022-12-18T02:39:44;9.33;;;2.33;;
69847;SDS011;57143;55.940;37.496;2022-12-18T02:42:15;9.30;;;2.72;;
69847;SDS011;57143;55.940;37.496;2022-12-18T02:44:44;7.68;;;2.10;;
69847;SDS011;57143;55.940;37.496;2022-12-18T02:47:13;6.80;;;2.10;;
69847;SDS011;57143;55.940;37.496;2022-12-18T02:49:44;7.40;;;1.95;;
69847;SDS011;57143;55.940;37.496;2022-12-18T02:52:25;8.17;;;2.57;;
69847;SDS011;57143;55.940;37.496;2022-12-18T02:55:00;11.10;;;3.03;;
69847;SDS011;57143;55.940;37.496;2022-12-18T02:57:42;6.63;;;1.70;;
69847;SDS011;57143;55.940;37.496;2022-12-18T03:00:16;10.57;;;3.65;;
69847;SDS011;57143;55.940;37.496;2022-12-18T03:02:46;6.65;;;2.10;;
69847;SDS011;57143;55.940;37.496;2022-12-18T03:05:19;6.57;;;1.47;;
69847;SDS011;57143;55.940;37.496;2022-12-18T03:07:51;7.70;;;2.75;;
69847;SDS011;57143;55.940;37.496;2022-12-18T03:10:25;5.95;;;1.65;;
69847;SDS011;57143;55.940;37.496;2022-12-18T03:12:58;8.95;;;2.80;;
69847;SDS011;57143;55.940;37.496;2022-12-18T03:15:31;6.32;;;1.95;;
69847;SDS011;57143;55.940;37.496;2022-12-18T03:18:04;6.57;;;1.73;;
69847;SDS011;57143;55.940;37.496;2022-12-18T03:20:37;7.60;;;1.52;;
69847;SDS011;57143;55.940;37.496;2022-12-18T03:23:09;6.68;;;2.10;;
69847;SDS011;57143;55.940;37.496;2022-12-18T03:25:38;7.88;;;1.60;;
69847;SDS011;57143;55.940;37.496;2022-12-18T03:28:09;6.80;;;1.85;;
69847;SDS011;57143;55.940;37.496;2022-12-18T03:30:40;8.13;;;2.47;;
69847;SDS011;57143;55.940;37.496;2022-12-18T03:33:10;6.38;;;1.65;;
69847;SDS011;57143;55.940;37.496;2022-12-18T03:35:43;5.72;;;1.55;;
69847;SDS011;57143;55.940;37.496;2022-12-18T03:38:10;6.80;;;1.77;;
69847;SDS011;57143;55.940;37.496;2022-12-18T03:40:41;6.03;;;1.42;;
69847;SDS011;57143;55.940;37.496;2022-12-18T03:43:16;7.27;;;2.23;;
69847;SDS011;57143;55.940;37.496;2022-12-18T03:45:49;8.98;;;2.67;;
69847;SDS011;57143;55.940;37.496;2022-12-18T03:48:20;9.93;;;2.38;;
69847;SDS011;57143;55.940;37.496;2022-12-18T03:50:56;4.97;;;1.45;;
69847;SDS011;57143;55.940;37.496;2022-12-18T03:53:27;10.50;;;1.88;;
69847;SDS011;57143;55.940;37.496;2022-12-18T03:56:00;6.83;;;1.47;;
69847;SDS011;57143;55.940;37.496;2022-12-18T03:58:29;6.28;;;1.58;;
69847;SDS011;57143;55.940;37.496;2022-12-18T04:01:00;6.68;;;1.77;;
69847;SDS011;57143;55.940;37.496;2022-12-18T04:03:30;8.75;;;3.35;;
69847;SDS011;57143;55.940;37.496;2022-12-18T04:06:00;6.40;;;1.77;;
69847;SDS011;57143;55.940;37.496;2022-12-18T04:08:29;7.07;;;2.30;;
69847;SDS011;57143;55.940;37.496;2022-12-18T04:10:56;9.70;;;2.40;;
69847;SDS011;57143;55.940;37.496;2022-12-18T04:13:23;10.40;;;2.70;;
69847;SDS011;57143;55.940;37.496;2022-12-18T04:15:55;5.80;;;1.67;;
69847;SDS011;57143;55.940;37.496;2022-12-18T04:18:22;6.68;;;2.22;;
69847;SDS011;57143;55.940;37.496;2022-12-18T04:20:49;6.63;;;1.67;;
69847;SDS011;57143;55.940;37.496;2022-12-18T04:23:16;5.70;;;1.83;;
69847;SDS011;57143;55.940;37.496;2022-12-18T04:25:43;5.53;;;1.33;;
69847;SDS011;57143;55.940;37.496;2022-12-18T04:28:11;5.50;;;1.45;;
69847;SDS011;57143;55.940;37.496;2022-12-18T04:30:38;5.80;;;1.75;;
69847;SDS011;57143;55.940;37.496;2022-12-18T04:33:09;5.10;;;1.50;;
69847;SDS011;57143;55.940;37.496;2022-12-18T04:35:37;7.65;;;3.00;;
69847;SDS011;57143;55.940;37.496;2022-12-18T04:38:05;7.50;;;2.25;;
69847;SDS011;57143;55.940;37.496;2022-12-18T04:40:34;7.57;;;2.10;;
69847;SDS011;57143;55.940;37.496;2022-12-18T04:43:01;9.77;;;2.13;;
69847;SDS011;57143;55.940;37.496;2022-12-18T04:45:29;6.03;;;1.63;;
69847;SDS011;57143;55.940;37.496;2022-12-18T04:47:56;6.50;;;2.03;;
69847;SDS011;57143;55.940;37.496;2022-12-18T04:50:25;8.30;;;2.40;;
69847;SDS011;57143;55.940;37.496;2022-12-18T04:52:52;9.07;;;2.10;;
69847;SDS011;57143;55.940;37.496;2022-12-18T04:55:20;7.43;;;2.30;;
69847;SDS011;57143;55.940;37.496;2022-12-18T04:57:47;6.57;;;2.23;;
69847;SDS011;57143;55.940;37.496;2022-12-18T05:00:14;8.07;;;2.75;;
69847;SDS011;57143;55.940;37.496;2022-12-18T05:02:42;8.13;;;2.05;;
69847;SDS011;57143;55.940;37.496;2022-12-18T05:05:09;7.05;;;1.73;;
69847;SDS011;57143;55.940;37.496;2022-12-18T05:07:38;5.45;;;1.83;;
69847;SDS011;57143;55.940;37.496;2022-12-18T05:10:05;8.47;;;1.63;;
69847;SDS011;57143;55.940;37.496;2022-12-18T05:12:33;5.05;;;1.20;;
69847;SDS011;57143;55.940;37.496;2022-12-18T05:15:20;5.63;;;1.70;;
69847;SDS011;57143;55.940;37.496;2022-12-18T05:17:47;6.15;;;1.50;;
69847;SDS011;57143;55.940;37.496;2022-12-18T05:20:14;7.50;;;2.20;;
69847;SDS011;57143;55.940;37.496;2022-12-18T05:22:43;9.13;;;1.97;;
69847;SDS011;57143;55.940;37.496;2022-12-18T05:25:10;7.20;;;2.30;;
69847;SDS011;57143;55.940;37.496;2022-12-18T05:27:38;10.05;;;2.65;;
69847;SDS011;57143;55.940;37.496;2022-12-18T05:30:06;6.30;;;1.92;;
69847;SDS011;57143;55.940;37.496;2022-12-18T05:32:34;7.47;;;2.30;;
69847;SDS011;57143;55.940;37.496;2022-12-18T05:35:01;8.03;;;2.27;;
69847;SDS011;57143;55.940;37.496;2022-12-18T05:37:28;7.35;;;1.95;;
69847;SDS011;57143;55.940;37.496;2022-12-18T05:39:57;5.68;;;1.75;;
69847;SDS011;57143;55.940;37.496;2022-12-18T05:42:24;6.80;;;1.70;;
69847;SDS011;57143;55.940;37.496;2022-12-18T05:44:51;5.82;;;1.70;;
69847;SDS011;57143;55.940;37.496;2022-12-18T05:47:18;8.93;;;2.90;;
69847;SDS011;57143;55.940;37.496;2022-12-18T05:49:45;5.88;;;1.90;;
69847;SDS011;57143;55.940;37.496;2022-12-18T05:52:12;5.57;;;1.65;;
69847;SDS011;57143;55.940;37.496;2022-12-18T05:54:39;8.27;;;2.38;;
69847;SDS011;57143;55.940;37.496;2022-12-18T05:57:08;8.50;;;1.80;;
69847;SDS011;57143;55.940;37.496;2022-12-18T05:59:35;5.70;;;1.40;;
69847;SDS011;57143;55.940;37.496;2022-12-18T06:02:02;7.30;;;2.03;;
69847;SDS011;57143;55.940;37.496;2022-12-18T06:04:29;5.43;;;1.40;;
69847;SDS011;57143;55.940;37.496;2022-12-18T06:06:56;6.55;;;2.38;;
69847;SDS011;57143;55.940;37.496;2022-12-18T06:09:24;7.95;;;2.45;;
69847;SDS011;57143;55.940;37.496;2022-12-18T06:11:51;8.40;;;2.83;;
69847;SDS011;57143;55.940;37.496;2022-12-18T06:14:20;5.43;;;1.55;;
69847;SDS011;57143;55.940;37.496;2022-12-18T06:16:47;8.82;;;2.50;;
69847;SDS011;57143;55.940;37.496;2022-12-18T06:19:17;7.05;;;2.20;;
69847;SDS011;57143;55.940;37.496;2022-12-18T06:21:44;6.90;;;1.98;;
69847;SDS011;57143;55.940;37.496;2022-12-18T06:24:12;5.83;;;1.83;;
69847;SDS011;57143;55.940;37.496;2022-12-18T06:26:39;6.35;;;2.28;;
69847;SDS011;57143;55.940;37.496;2022-12-18T06:29:06;12.40;;;2.97;;
69847;SDS011;57143;55.940;37.496;2022-12-18T06:31:35;6.10;;;1.80;;
69847;SDS011;57143;55.940;37.496;2022-12-18T06:34:03;7.13;;;2.00;;
69847;SDS011;57143;55.940;37.496;2022-12-18T06:36:31;7.10;;;2.43;;
69847;SDS011;57143;55.940;37.496;2022-12-18T06:38:58;3.95;;;1.13;;
69847;SDS011;57143;55.940;37.496;2022-12-18T06:41:25;6.43;;;2.03;;
69847;SDS011;57143;55.940;37.496;2022-12-18T06:43:52;6.68;;;1.77;;
69847;SDS011;57143;55.940;37.496;2022-12-18T06:46:20;6.78;;;2.13;;
69847;SDS011;57143;55.940;37.496;2022-12-18T06:48:49;8.27;;;2.97;;
69847;SDS011;57143;55.940;37.496;2022-12-18T06:51:17;7.93;;;2.53;;
69847;SDS011;57143;55.940;37.496;2022-12-18T06:53:46;7.72;;;1.80;;
69847;SDS011;57143;55.940;37.496;2022-12-18T06:56:13;6.45;;;2.17;;
69847;SDS011;57143;55.940;37.496;2022-12-18T06:58:40;10.23;;;2.25;;
69847;SDS011;57143;55.940;37.496;2022-12-18T07:01:08;8.53;;;2.67;;
69847;SDS011;57143;55.940;37.496;2022-12-18T07:03:37;9.07;;;2.30;;
69847;SDS011;57143;55.940;37.496;2022-12-18T07:06:11;4.95;;;1.55;;
69847;SDS011;57143;55.940;37.496;2022-12-18T07:08:40;5.47;;;1.30;;
69847;SDS011;57143;55.940;37.496;2022-12-18T07:11:07;7.00;;;1.92;;
69847;SDS011;57143;55.940;37.496;2022-12-18T07:13:34;8.53;;;2.57;;
69847;SDS011;57143;55.940;37.496;2022-12-18T07:16:05;7.55;;;1.85;;
69847;SDS011;57143;55.940;37.496;2022-12-18T07:18:34;7.40;;;2.65;;
69847;SDS011;57143;55.940;37.496;2022-12-18T07:21:06;5.60;;;1.63;;
69847;SDS011;57143;55.940;37.496;2022-12-18T07:23:34;6.10;;;2.25;;
69847;SDS011;57143;55.940;37.496;2022-12-18T07:26:02;8.47;;;2.53;;
69847;SDS011;57143;55.940;37.496;2022-12-18T07:28:30;6.53;;;1.90;;
69847;SDS011;57143;55.940;37.496;2022-12-18T07:31:02;11.40;;;1.45;;
69847;SDS011;57143;55.940;37.496;2022-12-18T07:33:29;6.63;;;1.80;;
69847;SDS011;57143;55.940;37.496;2022-12-18T07:35:58;5.10;;;1.30;;
69847;SDS011;57143;55.940;37.496;2022-12-18T07:38:29;6.33;;;2.23;;
69847;SDS011;57143;55.940;37.496;2022-12-18T07:40:59;7.95;;;2.55;;
69847;SDS011;57143;55.940;37.496;2022-12-18T07:43:27;6.32;;;1.83;;
69847;SDS011;57143;55.940;37.496;2022-12-18T07:45:54;6.82;;;1.73;;
69847;SDS011;57143;55.940;37.496;2022-12-18T07:48:21;10.73;;;2.30;;
69847;SDS011;57143;55.940;37.496;2022-12-18T07:50:49;7.43;;;1.83;;
69847;SDS011;57143;55.940;37.496;2022-12-18T07:53:16;7.28;;;1.95;;
69847;SDS011;57143;55.940;37.496;2022-12-18T07:55:44;5.43;;;1.63;;
69847;SDS011;57143;55.940;37.496;2022-12-18T07:58:11;6.03;;;1.52;;
69847;SDS011;57143;55.940;37.496;2022-12-18T08:00:38;4.65;;;0.95;;
69847;SDS011;57143;55.940;37.496;2022-12-18T08:03:05;6.67;;;1.80;;
69847;SDS011;57143;55.940;37.496;2022-12-18T08:05:33;5.97;;;1.42;;
69847;SDS011;57143;55.940;37.496;2022-12-18T08:08:00;6.80;;;1.88;;
69847;SDS011;57143;55.940;37.496;2022-12-18T08:10:27;6.35;;;2.15;;
69847;SDS011;57143;55.940;37.496;2022-12-18T08:12:56;7.38;;;2.33;;
69847;SDS011;57143;55.940;37.496;2022-12-18T08:15:23;7.93;;;2.23;;
69847;SDS011;57143;55.940;37.496;2022-12-18T08:17:50;7.68;;;1.90;;
69847;SDS011;57143;55.940;37.496;2022-12-18T08:20:20;4.45;;;1.35;;
69847;SDS011;57143;55.940;37.496;2022-12-18T08:22:47;6.15;;;1.85;;
69847;SDS011;57143;55.940;37.496;2022-12-18T08:25:14;6.72;;;1.55;;
69847;SDS011;57143;55.940;37.496;2022-12-18T08:27:42;7.87;;;1.90;;
69847;SDS011;57143;55.940;37.496;2022-12-18T08:30:11;7.38;;;2.45;;
69847;SDS011;57143;55.940;37.496;2022-12-18T08:32:41;9.10;;;2.45;;
69847;SDS011;57143;55.940;37.496;2022-12-18T08:35:08;10.00;;;2.33;;
69847;SDS011;57143;55.940;37.496;2022-12-18T08:37:37;6.53;;;1.88;;
69847;SDS011;57143;55.940;37.496;2022-12-18T08:40:05;6.83;;;1.60;;
69847;SDS011;57143;55.940;37.496;2022-12-18T08:42:34;7.43;;;2.03;;
69847;SDS011;57143;55.940;37.496;2022-12-18T08:45:20;6.03;;;1.67;;
69847;SDS011;57143;55.940;37.496;2022-12-18T08:47:47;6.38;;;1.25;;
69847;SDS011;57143;55.940;37.496;2022-12-18T08:50:14;6.80;;;2.13;;
69847;SDS011;57143;55.940;37.496;2022-12-18T08:52:41;8.00;;;4.10;;
69847;SDS011;57143;55.940;37.496;2022-12-18T08:55:09;6.97;;;1.75;;
69847;SDS011;57143;55.940;37.496;2022-12-18T08:57:36;6.28;;;1.63;;
69847;SDS011;57143;55.940;37.496;2022-12-18T09:00:03;4.40;;;1.05;;
69847;SDS011;57143;55.940;37.496;2022-12-18T09:02:32;5.63;;;1.30;;
69847;SDS011;57143;55.940;37.496;2022-12-18T09:04:59;5.93;;;1.30;;
69847;SDS011;57143;55.940;37.496;2022-12-18T09:07:27;4.40;;;1.13;;
69847;SDS011;57143;55.940;37.496;2022-12-18T09:09:54;6.15;;;1.50;;
69847;SDS011;57143;55.940;37.496;2022-12-18T09:12:21;5.68;;;1.08;;
69847;SDS011;57143;55.940;37.496;2022-12-18T09:14:48;6.38;;;2.00;;
69847;SDS011;57143;55.940;37.496;2022-12-18T09:17:15;5.13;;;1.80;;
69847;SDS011;57143;55.940;37.496;2022-12-18T09:19:44;6.65;;;1.60;;
69847;SDS011;57143;55.940;37.496;2022-12-18T09:22:11;4.97;;;1.35;;
69847;SDS011;57143;55.940;37.496;2022-12-18T09:24:38;5.18;;;1.38;;
69847;SDS011;57143;55.940;37.496;2022-12-18T09:27:05;4.78;;;0.98;;
69847;SDS011;57143;55.940;37.496;2022-12-18T09:29:32;4.50;;;1.10;;
69847;SDS011;57143;55.940;37.496;2022-12-18T09:31:59;9.05;;;2.05;;
69847;SDS011;57143;55.940;37.496;2022-12-18T09:34:26;6.15;;;1.25;;
69847;SDS011;57143;55.940;37.496;2022-12-18T09:36:55;4.03;;;0.88;;
69847;SDS011;57143;55.940;37.496;2022-12-18T09:39:22;6.30;;;1.58;;
69847;SDS011;57143;55.940;37.496;2022-12-18T09:41:50;5.53;;;1.23;;
69847;SDS011;57143;55.940;37.496;2022-12-18T09:44:21;5.32;;;1.35;;
69847;SDS011;57143;55.940;37.496;2022-12-18T09:46:53;8.07;;;2.00;;
69847;SDS011;57143;55.940;37.496;2022-12-18T09:49:28;5.30;;;1.52;;
69847;SDS011;57143;55.940;37.496;2022-12-18T09:52:02;7.30;;;1.45;;
69847;SDS011;57143;55.940;37.496;2022-12-18T09:54:32;3.30;;;1.00;;
69847;SDS011;57143;55.940;37.496;2022-12-18T09:57:13;5.40;;;1.63;;
69847;SDS011;57143;55.940;37.496;2022-12-18T09:59:44;6.30;;;1.90;;
69847;SDS011;57143;55.940;37.496;2022-12-18T10:02:17;4.05;;;0.85;;
69847;SDS011;57143;55.940;37.496;2022-12-18T10:04:48;6.70;;;1.33;;
69847;SDS011;57143;55.940;37.496;2022-12-18T10:07:29;7.27;;;1.73;;
69847;SDS011;57143;55.940;37.496;2022-12-18T10:10:14;5.53;;;1.90;;
69847;SDS011;57143;55.940;37.496;2022-12-18T10:12:51;5.07;;;1.38;;
69847;SDS011;57143;55.940;37.496;2022-12-18T10:15:27;4.38;;;1.02;;
69847;SDS011;57143;55.940;37.496;2022-12-18T10:18:02;6.32;;;1.55;;
69847;SDS011;57143;55.940;37.496;2022-12-18T10:20:41;5.83;;;1.43;;
69847;SDS011;57143;55.940;37.496;2022-12-18T10:23:14;5.53;;;1.30;;
69847;SDS011;57143;55.940;37.496;2022-12-18T10:25:51;6.78;;;1.45;;
69847;SDS011;57143;55.940;37.496;2022-12-18T10:28:22;5.85;;;1.30;;
69847;SDS011;57143;55.940;37.496;2022-12-18T10:30:50;6.55;;;1.63;;
69847;SDS011;57143;55.940;37.496;2022-12-18T10:33:18;7.03;;;1.73;;
69847;SDS011;57143;55.940;37.496;2022-12-18T10:35:47;5.82;;;1.42;;
69847;SDS011;57143;55.940;37.496;2022-12-18T10:38:25;4.95;;;1.30;;
69847;SDS011;57143;55.940;37.496;2022-12-18T10:40:54;4.43;;;0.98;;
69847;SDS011;57143;55.940;37.496;2022-12-18T10:43:23;5.22;;;1.30;;
69847;SDS011;57143;55.940;37.496;2022-12-18T10:45:58;6.43;;;1.27;;
69847;SDS011;57143;55.940;37.496;2022-12-18T10:48:31;7.25;;;1.52;;
69847;SDS011;57143;55.940;37.496;2022-12-18T10:51:00;4.97;;;1.10;;
69847;SDS011;57143;55.940;37.496;2022-12-18T10:53:31;4.90;;;1.13;;
69847;SDS011;57143;55.940;37.496;2022-12-18T10:56:00;5.00;;;1.13;;
69847;SDS011;57143;55.940;37.496;2022-12-18T10:58:31;6.10;;;1.93;;
69847;SDS011;57143;55.940;37.496;2022-12-18T11:01:03;6.40;;;1.83;;
69847;SDS011;57143;55.940;37.496;2022-12-18T11:03:34;6.43;;;1.40;;
69847;SDS011;57143;55.940;37.496;2022-12-18T11:06:03;6.80;;;1.38;;
69847;SDS011;57143;55.940;37.496;2022-12-18T11:08:34;5.38;;;1.70;;
69847;SDS011;57143;55.940;37.496;2022-12-18T11:11:02;6.43;;;1.67;;
69847;SDS011;57143;55.940;37.496;2022-12-18T11:13:30;5.70;;;1.48;;
69847;SDS011;57143;55.940;37.496;2022-12-18T11:15:58;9.65;;;2.15;;
69847;SDS011;57143;55.940;37.496;2022-12-18T11:18:27;7.07;;;1.88;;
69847;SDS011;57143;55.940;37.496;2022-12-18T11:20:56;9.02;;;1.92;;
69847;SDS011;57143;55.940;37.496;2022-12-18T11:23:25;6.77;;;1.40;;
69847;SDS011;57143;55.940;37.496;2022-12-18T11:25:56;5.45;;;1.10;;
69847;SDS011;57143;55.940;37.496;2022-12-18T11:28:27;5.97;;;1.15;;
69847;SDS011;57143;55.940;37.496;2022-12-18T11:33:47;3.13;;;0.82;;
69847;SDS011;57143;55.940;37.496;2022-12-18T11:36:20;5.20;;;1.20;;
69847;SDS011;57143;55.940;37.496;2022-12-18T11:38:49;5.32;;;1.15;;
69847;SDS011;57143;55.940;37.496;2022-12-18T11:41:23;4.15;;;0.93;;
69847;SDS011;57143;55.940;37.496;2022-12-18T11:44:09;5.53;;;1.27;;
69847;SDS011;57143;55.940;37.496;2022-12-18T11:46:42;5.20;;;1.30;;
69847;SDS011;57143;55.940;37.496;2022-12-18T11:49:17;4.63;;;1.00;;
69847;SDS011;57143;55.940;37.496;2022-12-18T11:51:50;4.95;;;1.08;;
69847;SDS011;57143;55.940;37.496;2022-12-18T11:54:25;4.80;;;1.00;;
69847;SDS011;57143;55.940;37.496;2022-12-18T11:56:55;3.05;;;0.52;;
69847;SDS011;57143;55.940;37.496;2022-12-18T11:59:30;4.65;;;0.93;;
69847;SDS011;57143;55.940;37.496;2022-12-18T12:02:12;4.40;;;1.07;;
69847;SDS011;57143;55.940;37.496;2022-12-18T12:05:01;5.05;;;1.17;;
69847;SDS011;57143;55.940;37.496;2022-12-18T12:07:40;4.60;;;0.85;;
69847;SDS011;57143;55.940;37.496;2022-12-18T12:10:16;6.40;;;1.60;;
69847;SDS011;57143;55.940;37.496;2022-12-18T12:12:59;5.70;;;1.25;;
69847;SDS011;57143;55.940;37.496;2022-12-18T12:15:43;4.33;;;0.90;;
69847;SDS011;57143;55.940;37.496;2022-12-18T12:18:20;4.43;;;0.90;;
69847;SDS011;57143;55.940;37.496;2022-12-18T12:21:01;8.68;;;1.60;;
69847;SDS011;57143;55.940;37.496;2022-12-18T12:23:37;5.70;;;1.30;;
69847;SDS011;57143;55.940;37.496;2022-12-18T12:26:11;6.45;;;1.38;;
69847;SDS011;57143;55.940;37.496;2022-12-18T12:31:47;5.95;;;1.10;;
69847;SDS011;57143;55.940;37.496;2022-12-18T12:34:26;5.25;;;1.25;;
69847;SDS011;57143;55.940;37.496;2022-12-18T12:37:01;5.40;;;1.48;;
69847;SDS011;57143;55.940;37.496;2022-12-18T12:39:42;6.13;;;1.38;;
69847;SDS011;57143;55.940;37.496;2022-12-18T12:42:12;8.97;;;1.67;;
69847;SDS011;57143;55.940;37.496;2022-12-18T12:45:05;8.27;;;1.63;;
69847;SDS011;57143;55.940;37.496;2022-12-18T12:47:33;6.22;;;1.60;;
69847;SDS011;57143;55.940;37.496;2022-12-18T12:50:11;7.55;;;2.15;;
69847;SDS011;57143;55.940;37.496;2022-12-18T12:52:42;7.05;;;1.45;;
69847;SDS011;57143;55.940;37.496;2022-12-18T12:55:14;11.40;;;2.37;;
69847;SDS011;57143;55.940;37.496;2022-12-18T12:57:46;9.20;;;2.25;;
69847;SDS011;57143;55.940;37.496;2022-12-18T13:00:23;11.73;;;3.42;;
69847;SDS011;57143;55.940;37.496;2022-12-18T13:02:56;10.48;;;3.50;;
69847;SDS011;57143;55.940;37.496;2022-12-18T13:05:31;9.95;;;2.75;;
69847;SDS011;57143;55.940;37.496;2022-12-18T13:08:05;10.37;;;2.90;;
69847;SDS011;57143;55.940;37.496;2022-12-18T13:10:35;10.85;;;2.28;;
69847;SDS011;57143;55.940;37.496;2022-12-18T13:13:04;11.93;;;3.25;;
69847;SDS011;57143;55.940;37.496;2022-12-18T13:15:38;12.95;;;3.60;;
69847;SDS011;57143;55.940;37.496;2022-12-18T13:18:12;13.45;;;3.33;;
69847;SDS011;57143;55.940;37.496;2022-12-18T13:20:43;8.20;;;1.70;;
69847;SDS011;57143;55.940;37.496;2022-12-18T13:23:27;10.40;;;3.50;;
69847;SDS011;57143;55.940;37.496;2022-12-18T13:25:58;10.65;;;3.13;;
69847;SDS011;57143;55.940;37.496;2022-12-18T13:28:49;9.52;;;2.42;;
69847;SDS011;57143;55.940;37.496;2022-12-18T13:34:35;9.03;;;3.17;;
69847;SDS011;57143;55.940;37.496;2022-12-18T13:43:27;10.82;;;2.85;;
69847;SDS011;57143;55.940;37.496;2022-12-18T13:46:01;9.90;;;2.40;;
69847;SDS011;57143;55.940;37.496;2022-12-18T13:48:48;10.10;;;2.60;;
69847;SDS011;57143;55.940;37.496;2022-12-18T13:51:20;11.70;;;3.40;;
69847;SDS011;57143;55.940;37.496;2022-12-18T13:53:49;7.18;;;2.55;;
69847;SDS011;57143;55.940;37.496;2022-12-18T13:56:18;8.93;;;3.28;;
69847;SDS011;57143;55.940;37.496;2022-12-18T14:01:41;7.47;;;1.87;;
69847;SDS011;57143;55.940;37.496;2022-12-18T14:04:10;6.10;;;1.85;;
69847;SDS011;57143;55.940;37.496;2022-12-18T14:06:40;7.30;;;1.60;;
69847;SDS011;57143;55.940;37.496;2022-12-18T14:09:10;6.07;;;1.75;;
69847;SDS011;57143;55.940;37.496;2022-12-18T14:11:41;6.93;;;1.90;;
69847;SDS011;57143;55.940;37.496;2022-12-18T14:14:13;7.20;;;1.80;;
69847;SDS011;57143;55.940;37.496;2022-12-18T14:16:42;6.50;;;1.35;;
69847;SDS011;57143;55.940;37.496;2022-12-18T14:19:10;6.55;;;1.48;;
69847;SDS011;57143;55.940;37.496;2022-12-18T14:21:42;4.80;;;1.20;;
69847;SDS011;57143;55.940;37.496;2022-12-18T14:24:17;7.07;;;2.05;;
69847;SDS011;57143;55.940;37.496;2022-12-18T14:26:46;6.07;;;1.50;;
69847;SDS011;57143;55.940;37.496;2022-12-18T14:29:18;5.97;;;1.25;;
69847;SDS011;57143;55.940;37.496;2022-12-18T14:34:30;7.00;;;1.60;;
69847;SDS011;57143;55.940;37.496;2022-12-18T14:36:59;4.65;;;1.00;;
69847;SDS011;57143;55.940;37.496;2022-12-18T14:39:26;6.73;;;1.70;;
69847;SDS011;57143;55.940;37.496;2022-12-18T14:41:53;7.70;;;1.42;;
69847;SDS011;57143;55.940;37.496;2022-12-18T14:44:20;6.35;;;1.17;;
69847;SDS011;57143;55.940;37.496;2022-12-18T14:46:48;6.43;;;1.50;;
69847;SDS011;57143;55.940;37.496;2022-12-18T14:49:18;5.80;;;1.20;;
69847;SDS011;57143;55.940;37.496;2022-12-18T14:51:49;6.30;;;1.37;;
69847;SDS011;57143;55.940;37.496;2022-12-18T14:54:21;5.18;;;1.23;;
69847;SDS011;57143;55.940;37.496;2022-12-18T14:56:50;7.32;;;2.13;;
69847;SDS011;57143;55.940;37.496;2022-12-18T14:59:23;5.22;;;1.45;;
69847;SDS011;57143;55.940;37.496;2022-12-18T15:01:55;5.00;;;1.10;;
69847;SDS011;57143;55.940;37.496;2022-12-18T15:04:26;6.20;;;1.40;;
69847;SDS011;57143;55.940;37.496;2022-12-18T15:09:41;6.03;;;1.80;;
69847;SDS011;57143;55.940;37.496;2022-12-18T15:12:33;3.95;;;1.15;;
69847;SDS011;57143;55.940;37.496;2022-12-18T15:15:01;7.85;;;1.77;;
69847;SDS011;57143;55.940;37.496;2022-12-18T15:17:30;7.53;;;2.13;;